Tiempo atmosférico en la estación meteorológica de Zumaia, Gipuzkoa (28 m.)



Fecha
DESCASC
Temp. máxima en grados centígrados (hora)
DESCASC
Temp. mínima en grados centígrados (hora)
DESCASC
Temp. media en grados centígrados
DESCASC
Racha de viento máxima en m/sg (hora)
DESCASC
Velocidad máxima media en intervalos de 10 minutos(hora)
DESCASC
Precipitaciones diarias en mm
DESCASC
Precipitaciones de 00:00 a 06:00 en mm
DESCASC
Precipitaciones de 06:00 a 12:00 en mm
DESCASC
Precipitaciones de 12:00 a 18:00 en mm
DESCASC
Precipitaciones de 18:00 a 24:00 en mm
DESCASC
17-09-2020 29 (16:00) 18.6 (07:40) 23.8 6.94 (15:50) 4.72 (15:50) 0 0 0 0 0
16-09-2020 25.8 (16:10) 17.6 (06:20) 21.7 7.22 (21:50) 4.17 (14:20) 0 0 0 0 0
15-09-2020 28 (15:00) 20.5 (04:40) 24.3 10.28 (00:50) 6.94 (13:40) 0 0 0 0 0
14-09-2020 36.9 (16:00) 21.4 (00:00) 29.2 19.17 (10:00) 10 (07:00) 0 0 0 0 0
13-09-2020 30.9 (15:50) 15.8 (00:00) 23.3 10.28 (23:59) 5.28 (16:00) 0 0 0 0 0
12-09-2020 25.4 (17:20) 15.9 (00:00) 20.6 5 (06:30) 3.89 (08:00) 0 0 0 0 0
11-09-2020 25.6 (18:10) 17.5 (00:00) 21.6 5.83 (14:30) 4.17 (14:00) 0 0 0 0 0
10-09-2020 26.4 (17:40) 14.9 (00:00) 20.6 5.28 (13:00) 3.89 (13:00) 0 0 0 0 0
09-09-2020 26.6 (17:30) 14.2 (00:00) 20.4 5.56 (06:20) 4.44 (08:10) 0 0 0 0 0
08-09-2020 24.3 (17:10) 13 (00:00) 18.6 8.06 (01:30) 5 (00:10) 0 0 0 0 0
07-09-2020 22.4 (13:50) 15.7 (07:40) 19 15 (04:00) 10.83 (04:00) 0 0 0 0 0
06-09-2020 25.4 (15:30) 18.7 (00:00) 22.1 11.11 (21:50) 7.78 (22:00) 0 0 0 0 0
05-09-2020 25.7 (12:00) 18.2 (00:00) 22 10.28 (17:50) 6.67 (09:40) 0 0 0 0 0
04-09-2020 31.8 (17:10) 15.5 (00:00) 23.6 8.61 (15:40) 5.83 (16:40) 0 0 0 0 0
03-09-2020 25.9 (18:20) 12.7 (00:00) 19.3 8.06 (13:40) 5.83 (13:00) 0 0 0 0 0
02-09-2020 24.7 (15:50) 15.1 (00:00) 19.9 6.11 (17:50) 3.89 (12:30) 0 0 0 0 0
01-09-2020 25.2 (16:40) 13.4 (00:00) 19.3 6.11 (16:40) 4.17 (16:50) 0 0 0 0 0
31-08-2020 22.4 (17:00) 12.3 (00:00) 17.3 7.22 (14:30) 4.72 (14:30) 0 0 0 0 0
30-08-2020 21.1 (17:50) 14.3 (00:00) 17.7 17.78 (00:50) 11.11 (05:00) 5.3 3.9 1 0.4 0
29-08-2020 21.4 (14:20) 15.2 (00:00) 18.3 18.89 (21:40) 13.06 (22:30) 11.2 2.3 1.6 1.6 5.7
28-08-2020 23.1 (01:10) 16.6 (00:00) 19.9 18.33 (06:50) 12.22 (06:50) 4.2 0.8 0.6 0.6 2.2
27-08-2020 30.2 (15:30) 19.3 (00:00) 24.8 9.44 (17:40) 6.39 (17:00) 0 0 0 0 0
26-08-2020 26.9 (17:40) 19.4 (00:00) 23.1 7.22 (15:20) 5.56 (15:40) 0.2 0 0.2 0 0
25-08-2020 29.2 (14:50) 16.3 (00:00) 22.8 9.72 (12:50) 6.67 (12:50) 0 0 0 0 0
24-08-2020 25.3 (14:40) 17.8 (00:00) 21.5 7.22 (19:00) 4.72 (18:30) 0.1 0 0.1 0 0
23-08-2020 25.9 (15:10) 18.3 (00:00) 22.1 7.78 (12:40) 6.11 (12:40) 0 0 0 0 0
22-08-2020 25.2 (14:00) 17.1 (00:00) 21.2 9.17 (16:20) 7.5 (16:20) 0.1 0 0.1 0 0
21-08-2020 25.4 (11:30) 19.6 (00:00) 22.5 10.28 (13:10) 7.22 (13:10) 2.6 0 0 0.5 2.1

Gráficas

Temp. máximas Temp. mínimas Temp. medias Precipitaciones Rachas de viento máximas Velocidades máximas media en intervalos de 10 minutos

Datos horarios

Fecha y hora oficial Temperatura (ºC) Velocidad del viento (km/h) Dirección del viento Racha (km/h) Dirección de racha Precipitación (mm) Presión (hPa) Tendencia (hPa) Humedad (%)
2020-09-19 23:00:00 19 0 Calma 16 Sur 0 -- -- 82
2020-09-19 22:00:00 19.9 3 Sudoeste 20 Sudoeste 0 -- -- 78
2020-09-19 21:00:00 19.2 7 Sudoeste 41 Noroeste 0 -- -- 85
2020-09-19 20:00:00 20.2 26 Noroeste 42 Noroeste 0.1 -- -- 87
2020-09-19 19:00:00 20.7 0 Calma 24 Noroeste 0 -- -- 85
2020-09-19 18:00:00 20.6 14 Noroeste 27 Noroeste 0 -- -- 88
2020-09-19 17:00:00 21.3 0 Calma 12 Sur 0.1 -- -- 90
2020-09-19 16:00:00 19.8 6 Sur 30 Noroeste 3.3 -- -- 88
2020-09-19 15:00:00 21.2 15 Noroeste 36 Noroeste 0 -- -- 75
2020-09-19 14:00:00 22.1 0 Calma 16 Sur 0 -- -- 71
2020-09-19 13:00:00 21.3 13 Sur 47 Sudoeste 0.3 -- -- 70
2020-09-19 12:00:00 23.6 10 Sur 29 Sur 0 -- -- 58
2020-09-19 11:00:00 23.5 10 Sur 29 Sur 0 -- -- 60
2020-09-19 10:00:00 20.8 9 Sur 40 Sur 0 -- -- 72
2020-09-19 09:00:00 20 20 Sur 42 Sur 0 -- -- 76
2020-09-19 08:00:00 19.1 15 Sur 29 Sur 0.3 -- -- 82
2020-09-19 07:00:00 20.7 11 Sur 30 Sur 0.3 -- -- 73
2020-09-19 06:00:00 21.4 14 Sur 24 Sur 0 -- -- 66
2020-09-19 05:00:00 21.4 8 Sur 27 Sur 0 -- -- 65
2020-09-19 04:00:00 21.6 6 Sur 31 Sudoeste 0 -- -- 64
2020-09-19 03:00:00 21.8 9 Sur 28 Sur 0 -- -- 64
2020-09-19 02:00:00 22.1 14 Sur 31 Sur 0 -- -- 66
2020-09-19 01:00:00 22.7 4 Sudoeste 21 Sur 0 -- -- 68
2020-09-19 00:00:00 21.6 0 Calma 24 Sudeste 0 -- -- 73
2020-09-18 23:00:00 20.1 5 Sur 14 Sudeste 0 -- -- 91
2020-09-18 22:00:00 20.5 8 Sur 18 Sur 0 -- -- 88
2020-09-18 21:00:00 20.4 6 Sur 24 Sudeste 0 -- -- 91
2020-09-18 20:00:00 20.4 9 Sur 16 Sur 0 -- -- 91
2020-09-18 19:00:00 20.2 0 Calma 14 Noroeste 0 -- -- 86
2020-09-18 18:00:00 19.7 6 Noroeste 63 Noroeste 2.1 -- -- 80
2020-09-18 17:00:00 24.6 16 Nordeste 22 Nordeste 0 -- -- 61
2020-09-18 16:00:00 28.5 6 Sur 19 Sur 0 -- -- 54
2020-09-18 15:00:00 24.2 10 Sur 24 Sur 0.1 -- -- 70
2020-09-18 14:00:00 22 14 Sudeste 35 Sur 2 -- -- 69
2020-09-18 13:00:00 27.8 15 Sur 42 Sur 0 -- -- 51
2020-09-18 12:00:00 25.8 0 Calma 27 Sudeste 0 -- -- 58
2020-09-18 11:00:00 25.2 7 Sur 21 Este 0 -- -- 59
2020-09-18 10:00:00 23.8 3 Sudeste 31 Sudeste 0 -- -- 63
2020-09-18 09:00:00 23.3 8 Este 18 Sur 0 -- -- 65
2020-09-18 08:00:00 23.1 6 Sur 45 Sur 0 -- -- 68
2020-09-18 07:00:00 24.7 20 Sur 55 Sudoeste 0 -- -- 59
2020-09-18 06:00:00 25.6 14 Sur 48 Sur 0 -- -- 54
2020-09-18 05:00:00 26.2 18 Sur 43 Sur 0 -- -- 52
2020-09-18 04:00:00 26.9 22 Sur 48 Sudoeste 0 -- -- 50
2020-09-18 03:00:00 27.4 16 Sur 42 Sur 0 -- -- 46
2020-09-18 02:00:00 26.9 17 Sur 47 Sudeste 0 -- -- 49
2020-09-18 01:00:00 23.6 9 Sudeste 13 Sudeste 0 -- -- 63
2020-09-18 00:00:00 23.2 8 Sur 13 Sudoeste 0 -- -- 70
2020-09-17 23:00:00 23 9 Sur 14 Sudoeste 0 -- -- 74
2020-09-17 22:00:00 23.2 6 Sur 17 Sudoeste 0 -- -- 75
2020-09-17 21:00:00 24.1 12 Sur 15 Sudoeste 0 -- -- 78
2020-09-17 20:00:00 25.1 0 Calma 11 Noroeste 0 -- -- 74
2020-09-17 19:00:00 26.1 3 Este 24 Este 0 -- -- 70
2020-09-17 18:00:00 25.9 0 Calma 9 Noroeste 0 -- -- 71
2020-09-17 17:00:00 25.5 0 Calma 15 Noroeste 0 -- -- 71
2020-09-17 16:00:00 28.5 10 Este 25 Este 0 -- -- 57
2020-09-17 15:00:00 28.4 7 Nordeste 18 Este 0 -- -- 64
2020-09-17 14:00:00 23.9 0 Calma 13 Nordeste 0 -- -- 83
2020-09-17 13:00:00 24.1 0 Calma 14 Nordeste 0 -- -- 81
2020-09-17 12:00:00 24.2 0 Calma 9 Nordeste 0 -- -- 81
2020-09-17 11:00:00 23.5 3 Nordeste 11 Nordeste 0 -- -- 81
2020-09-17 10:00:00 22.4 3 Sur 12 Sur 0 -- -- 87
2020-09-17 09:00:00 19.4 7 Sur 15 Sur 0 -- -- 95
2020-09-17 08:00:00 18.7 9 Sur 15 Sur 0 -- -- 95
2020-09-17 07:00:00 18.8 8 Sur 12 Sur 0 -- -- 95
2020-09-17 06:00:00 18.7 6 Sur 12 Sur 0 -- -- 95
2020-09-17 05:00:00 18.8 6 Sur 14 Sur 0 -- -- 95
2020-09-17 04:00:00 18.8 9 Sur 14 Sur 0 -- -- 95
2020-09-17 03:00:00 19.1 10 Sur 15 Sur 0 -- -- 95
2020-09-17 02:00:00 19.4 9 Sur 13 Sur 0 -- -- 95
2020-09-17 01:00:00 19.7 8 Sur 13 Sur 0 -- -- 95
2020-09-17 00:00:00 20.4 7 Sur 11 Sudoeste 0 -- -- 94
2020-09-16 23:00:00 21.1 5 Sur 8 Sur 0 -- -- 93
2020-09-16 22:00:00 21.9 6 Sur 26 Sur 0 -- -- 91
2020-09-16 21:00:00 22.6 6 Sur 12 Sur 0 -- -- 88
2020-09-16 20:00:00 23.5 0 Calma 17 Nordeste 0 -- -- 85
2020-09-16 19:00:00 23.8 15 Nordeste 24 Nordeste 0 -- -- 84
2020-09-16 18:00:00 24.4 5 Norte 12 Nordeste 0 -- -- 80
2020-09-16 17:00:00 25.7 4 Norte 12 Norte 0 -- -- 75
2020-09-16 16:00:00 25.6 4 Norte 14 Norte 0 -- -- 76
2020-09-16 15:00:00 25 12 Norte 18 Norte 0 -- -- 77
2020-09-16 14:00:00 24.2 14 Nordeste 20 Nordeste 0 -- -- 77
2020-09-16 13:00:00 24.1 12 Nordeste 14 Nordeste 0 -- -- 78
2020-09-16 12:00:00 24.7 9 Nordeste 12 Nordeste 0 -- -- 77
2020-09-16 11:00:00 24.6 0 Calma 10 Sur 0 -- -- 71
2020-09-16 10:00:00 21.2 6 Sur 13 Sur 0 -- -- 83
2020-09-16 09:00:00 18.5 8 Sur 14 Sur 0 -- -- 91
2020-09-16 08:00:00 17.8 9 Sur 14 Sur 0 -- -- 92
2020-09-16 07:00:00 17.7 8 Sur 14 Sudoeste 0 -- -- 92
2020-09-16 06:00:00 17.8 10 Sur 14 Sur 0 -- -- 92
2020-09-16 05:00:00 18 9 Sur 14 Sur 0 -- -- 91
2020-09-16 04:00:00 18.3 8 Sur 13 Sur 0 -- -- 91
2020-09-16 03:00:00 18.6 10 Sur 14 Sur 0 -- -- 91
2020-09-16 02:00:00 19.1 8 Sur 13 Sur 0 -- -- 91
2020-09-16 01:00:00 19.8 8 Sur 11 Sur 0 -- -- 90
2020-09-16 00:00:00 20.6 6 Sur 9 Sur 0 -- -- 90
2020-09-15 23:00:00 21.3 0 Calma 6 Sur 0 -- -- 91
2020-09-15 22:00:00 22.2 0 Calma 6 Oeste 0 -- -- 91
2020-09-15 21:00:00 22.9 0 Calma 9 Noroeste 0 -- -- 89
2020-09-15 20:00:00 23.3 0 Calma 10 Noroeste 0 -- -- 85
2020-09-15 19:00:00 24.7 6 Noroeste 13 Oeste 0 -- -- 75
2020-09-15 18:00:00 26.5 7 Noroeste 14 Noroeste 0 -- -- 71
2020-09-15 17:00:00 27.6 8 Noroeste 12 Noroeste 0 -- -- 71
2020-09-15 16:00:00 25.8 8 Noroeste 23 Nordeste 0 -- -- 74
2020-09-15 15:00:00 27.9 6 Nordeste 26 Nordeste 0 -- -- 60
2020-09-15 14:00:00 25 20 Nordeste 32 Nordeste 0 -- -- 74
2020-09-15 13:00:00 24.6 16 Nordeste 19 Nordeste 0 -- -- 71
2020-09-15 12:00:00 24.1 3 Norte 12 Noroeste 0 -- -- 78
2020-09-15 11:00:00 24.4 0 Calma 9 Nordeste 0 -- -- 68
2020-09-15 10:00:00 23.4 0 Calma 5 Sudoeste 0 -- -- 74
2020-09-15 09:00:00 21.4 0 Calma 10 Sur 0 -- -- 81
2020-09-15 08:00:00 20.8 0 Calma 18 Sur 0 -- -- 84
2020-09-15 07:00:00 20.7 8 Sur 14 Sur 0 -- -- 85
2020-09-15 06:00:00 21 8 Sur 19 Sudoeste 0 -- -- 86
2020-09-15 05:00:00 20.9 9 Sur 17 Sur 0 -- -- 88
2020-09-15 04:00:00 21 4 Sur 12 Sur 0 -- -- 91
2020-09-15 03:00:00 21.1 0 Calma 9 Sudeste 0 -- -- 90
2020-09-15 02:00:00 21.4 2 Sudeste 30 Noroeste 0 -- -- 90
2020-09-15 01:00:00 22.1 23 Noroeste 37 Noroeste 0 -- -- 89
2020-09-15 00:00:00 21.4 0 Calma 8 Sur 0 -- -- 81
2020-09-14 23:00:00 21.9 0 Calma 5 Sudoeste 0 -- -- 79
2020-09-14 22:00:00 22.3 0 Calma -- -- 0 -- -- 78
2020-09-14 21:00:00 22.8 0 Calma 11 Noroeste 0 -- -- 76
2020-09-14 20:00:00 23.3 4 Sur 11 Sudeste 0 -- -- 72
2020-09-14 19:00:00 23.3 4 Noroeste 18 Noroeste 0 -- -- 74
2020-09-14 18:00:00 23.3 12 Noroeste 34 Noroeste 0 -- -- 79
2020-09-14 17:00:00 23.8 15 Oeste 59 Noroeste 0 -- -- 81
2020-09-14 16:00:00 36.5 13 Sur 40 Sudoeste 0 -- -- 30
2020-09-14 15:00:00 36.4 17 Sur 50 Sudoeste 0 -- -- 31
2020-09-14 14:00:00 35.2 28 Sur 52 Sudoeste 0 -- -- 32
2020-09-14 13:00:00 33.9 29 Sur 66 Sur 0 -- -- 34
2020-09-14 12:00:00 32.3 27 Sur 63 Sur 0 -- -- 35
2020-09-14 11:00:00 30.8 31 Sur 64 Sur 0 -- -- 37
2020-09-14 10:00:00 29.8 30 Sur 69 Sur 0 -- -- 37
2020-09-14 09:00:00 28 36 Sur 63 Sur 0 -- -- 39
2020-09-14 08:00:00 27.7 30 Sur 68 Sur 0 -- -- 38
2020-09-14 07:00:00 28.3 36 Sur 67 Sur 0 -- -- 38
2020-09-14 06:00:00 28.6 28 Sur 55 Sur 0 -- -- 37
2020-09-14 05:00:00 29.2 27 Sur 56 Sur 0 -- -- 37
2020-09-14 04:00:00 29.5 27 Sur 60 Sur 0 -- -- 36
2020-09-14 03:00:00 29.6 26 Sur 60 Sur 0 -- -- 37
2020-09-14 02:00:00 29.8 27 Sur 58 Sur 0 -- -- 36
2020-09-14 01:00:00 29.7 28 Sur 54 Sur 0 -- -- 35
2020-09-14 00:00:00 28.4 19 Sur 37 Sur 0 -- -- 41
2020-09-13 23:00:00 24.5 4 Norte 13 Sudoeste 0 -- -- 68
2020-09-13 22:00:00 23 11 Sudoeste 14 Sudoeste 0 -- -- 82
2020-09-13 21:00:00 24.4 2 Sudoeste 8 Sur 0 -- -- 78
2020-09-13 20:00:00 25.7 3 Noroeste 8 Noroeste 0 -- -- 72
2020-09-13 19:00:00 26.5 0 Calma 18 Noroeste 0 -- -- 70
2020-09-13 18:00:00 28.2 10 Norte 27 Este 0 -- -- 59
2020-09-13 17:00:00 30.5 19 Este 31 Este 0 -- -- 47
2020-09-13 16:00:00 30.6 19 Este 29 Este 0 -- -- 48
2020-09-13 15:00:00 29 15 Nordeste 26 Este 0 -- -- 53
2020-09-13 14:00:00 25.9 15 Nordeste 25 Nordeste 0 -- -- 63
2020-09-13 13:00:00 26.4 10 Nordeste 20 Nordeste 0 -- -- 62
2020-09-13 12:00:00 24.6 5 Nordeste 20 Nordeste 0 -- -- 72
2020-09-13 11:00:00 22.9 4 Noroeste 10 Noroeste 0 -- -- 76
2020-09-13 10:00:00 20.8 0 Calma 14 Sur 0 -- -- 83
2020-09-13 09:00:00 16.9 10 Sur 18 Sur 0 -- -- 95
2020-09-13 08:00:00 15.9 13 Sur 19 Sur 0 -- -- 95
2020-09-13 07:00:00 15.9 10 Sur 19 Sur 0 -- -- 95
2020-09-13 06:00:00 16.1 12 Sur 19 Sur 0 -- -- 94
2020-09-13 05:00:00 16.1 11 Sur 17 Sur 0 -- -- 95
2020-09-13 04:00:00 16.2 13 Sur 17 Sur 0 -- -- 94
2020-09-13 03:00:00 16.5 12 Sur 15 Sur 0 -- -- 93
2020-09-13 02:00:00 16.8 12 Sur 16 Sur 0 -- -- 92
2020-09-13 01:00:00 17.5 8 Sur 14 Sur 0 -- -- 91
2020-09-13 00:00:00 18.1 8 Sur 13 Sur 0 -- -- 91
2020-09-12 23:00:00 18.8 7 Sur 10 Sur 0 -- -- 88
2020-09-12 22:00:00 19.6 8 Sur 14 Sur 0 -- -- 85
2020-09-12 21:00:00 20.5 6 Sur 10 Sur 0 -- -- 79
2020-09-12 20:00:00 22.2 9 Nordeste 12 Nordeste 0 -- -- 73
2020-09-12 19:00:00 23.7 9 Nordeste 13 Norte 0 -- -- 68
2020-09-12 18:00:00 24.8 8 Norte 12 Nordeste 0 -- -- 65
2020-09-12 17:00:00 24.7 8 Norte 16 Nordeste 0 -- -- 64
2020-09-12 16:00:00 24.6 12 Norte 18 Norte 0 -- -- 65
2020-09-12 15:00:00 24.7 9 Norte 16 Norte 0 -- -- 72
2020-09-12 14:00:00 23.9 9 Norte 13 Norte 0 -- -- 74
2020-09-12 13:00:00 23.6 8 Norte 13 Noroeste 0 -- -- 75
2020-09-12 12:00:00 23.7 9 Noroeste 12 Norte 0 -- -- 74
2020-09-12 11:00:00 24.1 0 Calma 12 Sur 0 -- -- 74
2020-09-12 10:00:00 19.6 8 Sur 15 Sur 0 -- -- 94
2020-09-12 09:00:00 16.8 13 Sur 18 Sur 0 -- -- 97
2020-09-12 08:00:00 16.2 14 Sur 18 Sur 0 -- -- 98
2020-09-12 07:00:00 16.2 13 Sur 18 Sur 0 -- -- 97
2020-09-12 06:00:00 16 10 Sur 17 Sur 0 -- -- 97
2020-09-12 05:00:00 16.2 11 Sur 15 Sur 0 -- -- 96
2020-09-12 04:00:00 16.6 10 Sur 15 Sur 0 -- -- 96
2020-09-12 03:00:00 17.1 10 Sur 15 Sur 0 -- -- 96
2020-09-12 02:00:00 17.4 10 Sur 15 Sur 0 -- -- 95
2020-09-12 01:00:00 17.9 9 Sur 14 Sur 0 -- -- 95
2020-09-12 00:00:00 18.5 8 Sur 13 Sur 0 -- -- 94
2020-09-11 23:00:00 19.3 8 Sur 18 Sur 0 -- -- 92
2020-09-11 22:00:00 20 5 Sur 8 Sur 0 -- -- 88
2020-09-11 21:00:00 21.3 0 Calma 8 Este 0 -- -- 83
2020-09-11 20:00:00 23.2 0 Calma 3 Noroeste 0 -- -- 75
2020-09-11 19:00:00 25.1 0 Calma 8 Norte 0 -- -- 71
2020-09-11 18:00:00 25.1 4 Norte 14 Norte 0 -- -- 72
2020-09-11 17:00:00 24.7 8 Norte 16 Norte 0 -- -- 74
2020-09-11 16:00:00 24.1 13 Nordeste 20 Norte 0 -- -- 74
2020-09-11 15:00:00 24.2 13 Nordeste 21 Norte 0 -- -- 76
2020-09-11 14:00:00 23.6 15 Nordeste 19 Nordeste 0 -- -- 77
2020-09-11 13:00:00 23.7 13 Nordeste 16 Norte 0 -- -- 78
2020-09-11 12:00:00 23.1 10 Norte 15 Norte 0 -- -- 80
2020-09-11 11:00:00 23 0 Calma 9 Sur 0 -- -- 75
2020-09-11 10:00:00 21.4 5 Sur 12 Sur 0 -- -- 87
2020-09-11 09:00:00 18 9 Sur 14 Sur 0 -- -- 94
2020-09-11 08:00:00 17.5 10 Sur 14 Sur 0 -- -- 95
2020-09-11 07:00:00 17.6 8 Sur 13 Sur 0 -- -- 95
2020-09-11 06:00:00 18 8 Sur 14 Sur 0 -- -- 95
2020-09-11 05:00:00 17.9 8 Sur 13 Sur 0 -- -- 95
2020-09-11 04:00:00 17.9 8 Sur 13 Sur 0 -- -- 95
2020-09-11 03:00:00 17.7 9 Sur 13 Sur 0 -- -- 95
2020-09-11 02:00:00 18 6 Sur 13 Sur 0 -- -- 94
2020-09-11 01:00:00 18.4 7 Sur 12 Sur 0 -- -- 93
2020-09-11 00:00:00 19 6 Sur 10 Sur 0 -- -- 92
2020-09-10 23:00:00 19.7 5 Sur 11 Sur 0 -- -- 91
2020-09-10 22:00:00 20.6 5 Sur 9 Sur 0 -- -- 90
2020-09-10 21:00:00 21.4 3 Oeste 13 Noroeste 0 -- -- 88
2020-09-10 20:00:00 22.6 8 Noroeste 17 Noroeste 0 -- -- 81
2020-09-10 19:00:00 23.7 6 Noroeste 14 Noroeste 0 -- -- 74
2020-09-10 18:00:00 25.2 10 Noroeste 17 Noroeste 0 -- -- 72
2020-09-10 17:00:00 25.6 10 Noroeste 15 Noroeste 0 -- -- 70
2020-09-10 16:00:00 25.5 9 Noroeste 14 Noroeste 0 -- -- 72
2020-09-10 15:00:00 24.3 10 Noroeste 17 Noroeste 0 -- -- 73
2020-09-10 14:00:00 25 11 Noroeste 18 Noroeste 0 -- -- 71
2020-09-10 13:00:00 23.7 14 Noroeste 19 Noroeste 0 -- -- 73
2020-09-10 12:00:00 23.4 8 Noroeste 14 Noroeste 0 -- -- 66
2020-09-10 11:00:00 23.2 0 Calma 10 Sur 0 -- -- 59
2020-09-10 10:00:00 20.2 7 Sur 15 Sur 0 -- -- 74
2020-09-10 09:00:00 15.9 10 Sur 17 Sur 0 -- -- 88
2020-09-10 08:00:00 15 11 Sur 17 Sur 0 -- -- 89
2020-09-10 07:00:00 15.1 9 Sur 17 Sur 0 -- -- 88
2020-09-10 06:00:00 15.3 12 Sur 17 Sur 0 -- -- 87
2020-09-10 05:00:00 15.5 11 Sur 17 Sur 0 -- -- 87
2020-09-10 04:00:00 15.8 10 Sur 17 Sur 0 -- -- 87
2020-09-10 03:00:00 16 10 Sur 17 Sur 0 -- -- 87
2020-09-10 02:00:00 16.3 9 Sur 16 Sur 0 -- -- 87
2020-09-10 01:00:00 16.6 11 Sur 17 Sur 0 -- -- 86
2020-09-10 00:00:00 17.4 9 Sur 15 Sur 0 -- -- 86
2020-09-09 23:00:00 18 7 Sur 12 Sur 0 -- -- 87
2020-09-09 22:00:00 19.6 4 Sur 10 Sur 0 -- -- 86
2020-09-09 21:00:00 21.2 3 Sur 10 Oeste 0 -- -- 83
2020-09-09 20:00:00 23.3 3 Oeste 11 Noroeste 0 -- -- 75
2020-09-09 19:00:00 25.1 6 Noroeste 14 Noroeste 0 -- -- 68
2020-09-09 18:00:00 25.9 9 Noroeste 18 Noroeste 0 -- -- 61
2020-09-09 17:00:00 26.2 13 Noroeste 18 Noroeste 0 -- -- 61
2020-09-09 16:00:00 24.8 14 Noroeste 18 Noroeste 0 -- -- 66
2020-09-09 15:00:00 24.2 7 Norte 15 Norte 0 -- -- 69
2020-09-09 14:00:00 23.3 10 Norte 15 Norte 0 -- -- 70
2020-09-09 13:00:00 23 8 Nordeste 13 Nordeste 0 -- -- 67
2020-09-09 12:00:00 22.7 7 Noroeste 13 Norte 0 -- -- 67
2020-09-09 11:00:00 22.5 0 Calma 14 Sur 0 -- -- 63
2020-09-09 10:00:00 19.2 9 Sur 17 Sur 0 -- -- 76
2020-09-09 09:00:00 15.4 12 Sur 20 Sur 0 -- -- 90
2020-09-09 08:00:00 14.3 15 Sur 20 Sur 0 -- -- 91
2020-09-09 07:00:00 14.4 13 Sur 20 Sur 0 -- -- 91
2020-09-09 06:00:00 14.6 12 Sur 19 Sur 0 -- -- 91
2020-09-09 05:00:00 14.6 10 Sur 19 Sur 0 -- -- 91
2020-09-09 04:00:00 14.8 14 Sur 20 Sur 0 -- -- 91
2020-09-09 03:00:00 15.1 14 Sur 19 Sur 0 -- -- 91
2020-09-09 02:00:00 15.5 13 Sur 18 Sur 0 -- -- 90
2020-09-09 01:00:00 15.9 13 Sur 19 Sur 0 -- -- 89
2020-09-09 00:00:00 16.4 10 Sur 17 Sur 0 -- -- 88
2020-09-08 23:00:00 17.3 10 Sur 14 Sur 0 -- -- 84
2020-09-08 22:00:00 18.5 10 Sur 14 Sur 0 -- -- 77
2020-09-08 21:00:00 19.7 6 Sur 9 Sur 0 -- -- 70
2020-09-08 20:00:00 22.4 0 Calma 5 Norte 0 -- -- 62
2020-09-08 19:00:00 23.5 0 Calma 8 Oeste 0 -- -- 60
2020-09-08 18:00:00 23.8 4 Noroeste 14 Noroeste 0 -- -- 61
2020-09-08 17:00:00 24.1 7 Noroeste 12 Noroeste 0 -- -- 61
2020-09-08 16:00:00 23.5 6 Norte 13 Noroeste 0 -- -- 62
2020-09-08 15:00:00 23.3 4 Norte 14 Nordeste 0 -- -- 64
2020-09-08 14:00:00 22.1 9 Nordeste 18 Nordeste 0 -- -- 65
2020-09-08 13:00:00 21.5 8 Norte 15 Norte 0 -- -- 68
2020-09-08 12:00:00 21.2 11 Nordeste 16 Nordeste 0 -- -- 65
2020-09-08 11:00:00 21.2 0 Calma 10 Sur 0 -- -- 66
2020-09-08 10:00:00 18.1 9 Sur 14 Sur 0 -- -- 82
2020-09-08 09:00:00 14 12 Sur 15 Sur 0 -- -- 95
2020-09-08 08:00:00 13.1 12 Sur 16 Sur 0 -- -- 95
2020-09-08 07:00:00 13.5 10 Sur 16 Sur 0 -- -- 94
2020-09-08 06:00:00 14 9 Sur 16 Sur 0 -- -- 93
2020-09-08 05:00:00 14.7 12 Sur 15 Sur 0 -- -- 92
2020-09-08 04:00:00 15.6 8 Sur 15 Sur 0 -- -- 88
2020-09-08 03:00:00 16.8 8 Sur 15 Sur 0 -- -- 80
2020-09-08 02:00:00 18.6 10 Sur 29 Nordeste 0 -- -- 73
2020-09-08 01:00:00 20 16 Nordeste 28 Nordeste 0 -- -- 71
2020-09-08 00:00:00 20 18 Nordeste 30 Nordeste 0 -- -- 69
2020-09-07 23:00:00 19.7 17 Nordeste 27 Nordeste 0 -- -- 68
2020-09-07 22:00:00 19.6 16 Norte 28 Norte 0 -- -- 68
2020-09-07 21:00:00 19.5 16 Norte 28 Norte 0 -- -- 67
2020-09-07 20:00:00 19.9 15 Norte 31 Noroeste 0 -- -- 63
2020-09-07 19:00:00 21.7 16 Norte 30 Norte 0 -- -- 58
2020-09-07 18:00:00 22 17 Norte 30 Norte 0 -- -- 57
2020-09-07 17:00:00 21.7 17 Norte 26 Norte 0 -- -- 56
2020-09-07 16:00:00 21.7 15 Norte 30 Norte 0 -- -- 54
2020-09-07 15:00:00 21.4 17 Nordeste 27 Norte 0 -- -- 52
2020-09-07 14:00:00 21.6 15 Nordeste 22 Nordeste 0 -- -- 53
2020-09-07 13:00:00 21.8 9 Nordeste 15 Nordeste 0 -- -- 53
2020-09-07 12:00:00 21 6 Nordeste 14 Nordeste 0 -- -- 59
2020-09-07 11:00:00 19.9 0 Calma 5 Sur 0 -- -- 71
2020-09-07 10:00:00 18.8 0 Calma 10 Sudeste 0 -- -- 82
2020-09-07 09:00:00 16.5 3 Sur 13 Sudeste 0 -- -- 87
2020-09-07 08:00:00 15.9 6 Sur 23 Sur 0 -- -- 86
2020-09-07 07:00:00 16 12 Sudeste 37 Este 0 -- -- 85
2020-09-07 06:00:00 16.5 4 Sur 11 Sudoeste 0 -- -- 81
2020-09-07 05:00:00 17 0 Calma 45 Noroeste 0 -- -- 73
2020-09-07 04:00:00 18.2 39 Noroeste 54 Noroeste 0 -- -- 75
2020-09-07 03:00:00 18.9 16 Norte 29 Norte 0 -- -- 66
2020-09-07 02:00:00 18.9 24 Nordeste 42 Norte 0 -- -- 66
2020-09-07 01:00:00 19 27 Norte 39 Norte 0 -- -- 68
2020-09-07 00:00:00 19 22 Norte 36 Norte 0 -- -- 69
2020-09-06 23:00:00 18.8 26 Nordeste 37 Norte 0 -- -- 69
2020-09-06 22:00:00 19.1 28 Norte 40 Norte 0 -- -- 71
2020-09-06 21:00:00 19.4 20 Norte 36 Norte 0 -- -- 69
2020-09-06 20:00:00 19.5 19 Norte 37 Nordeste 0 -- -- 68
2020-09-06 19:00:00 19.9 21 Norte 32 Norte 0 -- -- 65
2020-09-06 18:00:00 20.5 21 Norte 31 Norte 0 -- -- 64
2020-09-06 17:00:00 20.5 24 Nordeste 36 Nordeste 0 -- -- 61
2020-09-06 16:00:00 23.5 20 Noroeste 29 Noroeste 0 -- -- 57
2020-09-06 15:00:00 24.7 15 Noroeste 31 Noroeste 0 -- -- 54
2020-09-06 14:00:00 24.6 18 Noroeste 29 Noroeste 0 -- -- 53
2020-09-06 13:00:00 23.8 19 Noroeste 32 Noroeste 0 -- -- 57
2020-09-06 12:00:00 23.9 14 Noroeste 24 Noroeste 0 -- -- 60
2020-09-06 11:00:00 20 11 Noroeste 24 Noroeste 0 -- -- 71
2020-09-06 10:00:00 19.3 13 Noroeste 25 Noroeste 0 -- -- 71
2020-09-06 09:00:00 19.1 14 Noroeste 23 Noroeste 0 -- -- 72
2020-09-06 08:00:00 18.9 14 Noroeste 29 Noroeste 0 -- -- 73
2020-09-06 07:00:00 19 17 Noroeste 27 Noroeste 0 -- -- 75
2020-09-06 06:00:00 19 14 Norte 26 Noroeste 0 -- -- 75
2020-09-06 05:00:00 19.2 15 Norte 29 Norte 0 -- -- 76
2020-09-06 04:00:00 19.3 15 Norte 29 Norte 0 -- -- 76
2020-09-06 03:00:00 19.4 15 Norte 28 Norte 0 -- -- 77
2020-09-06 02:00:00 18.9 6 Norte 31 Norte 0 -- -- 84
2020-09-06 01:00:00 19.4 19 Norte 35 Norte 0 -- -- 82
2020-09-06 00:00:00 20 12 Norte 24 Nordeste 0 -- -- 78
2020-09-05 23:00:00 20.1 12 Norte 27 Norte 0 -- -- 78
2020-09-05 22:00:00 20.1 11 Norte 28 Norte 0 -- -- 78
2020-09-05 21:00:00 20.1 16 Norte 29 Nordeste 0 -- -- 81
2020-09-05 20:00:00 20.4 17 Norte 30 Norte 0 -- -- 81
2020-09-05 19:00:00 21.3 19 Norte 32 Norte 0 -- -- 81
2020-09-05 18:00:00 21.2 19 Norte 37 Norte 0 -- -- 81
2020-09-05 17:00:00 22 15 Norte 30 Norte 0 -- -- 76
2020-09-05 16:00:00 23 15 Norte 28 Norte 0 -- -- 72
2020-09-05 15:00:00 23.2 16 Norte 27 Noroeste 0 -- -- 71
2020-09-05 14:00:00 24.1 16 Noroeste 26 Noroeste 0 -- -- 72
2020-09-05 13:00:00 23 21 Noroeste 27 Noroeste 0 -- -- 72
2020-09-05 12:00:00 25.3 17 Noroeste 26 Noroeste 0 -- -- 67
2020-09-05 11:00:00 24.4 17 Noroeste 31 Noroeste 0 -- -- 74
2020-09-05 10:00:00 21.4 20 Noroeste 33 Noroeste 0 -- -- 86
2020-09-05 09:00:00 20.7 21 Noroeste 33 Noroeste 0 -- -- 91
2020-09-05 08:00:00 19.3 4 Sur 10 Sur 0 -- -- 94
2020-09-05 07:00:00 18.9 7 Sur 12 Sur 0 -- -- 95
2020-09-05 06:00:00 18.8 8 Sur 12 Sudoeste 0 -- -- 94
2020-09-05 05:00:00 18.5 9 Sudoeste 12 Sudoeste 0 -- -- 95
2020-09-05 04:00:00 18.3 10 Sur 14 Sudoeste 0 -- -- 94
2020-09-05 03:00:00 18.7 11 Sudoeste 13 Sudoeste 0 -- -- 94
2020-09-05 02:00:00 19.2 7 Sudoeste 18 Oeste 0 -- -- 92
2020-09-05 01:00:00 21 6 Oeste 17 Oeste 0 -- -- 92
2020-09-05 00:00:00 20.5 6 Sudoeste 16 Oeste 0 -- -- 92
2020-09-04 23:00:00 21.2 8 Sudoeste 11 Sur 0 -- -- 89
2020-09-04 22:00:00 22 8 Sur 12 Sur 0 -- -- 83
2020-09-04 21:00:00 23.5 2 Sur 16 Oeste 0 -- -- 78
2020-09-04 20:00:00 24.2 8 Oeste 21 Noroeste 0 -- -- 81
2020-09-04 19:00:00 25.7 14 Noroeste 22 Oeste 0 -- -- 75
2020-09-04 18:00:00 27.5 11 Noroeste 27 Noroeste 0 -- -- 57
2020-09-04 17:00:00 31.5 17 Este 31 Este 0 -- -- 42
2020-09-04 16:00:00 28.9 17 Nordeste 31 Nordeste 0 -- -- 47
2020-09-04 15:00:00 29.8 15 Este 28 Nordeste 0 -- -- 43
2020-09-04 14:00:00 25.4 18 Nordeste 27 Nordeste 0 -- -- 63
2020-09-04 13:00:00 24 10 Nordeste 19 Norte 0 -- -- 74
2020-09-04 12:00:00 23.7 9 Norte 19 Norte 0 -- -- 76
2020-09-04 11:00:00 22.7 9 Nordeste 13 Norte 0 -- -- 80
2020-09-04 10:00:00 20.1 3 Sudoeste 14 Sur 0 -- -- 83
2020-09-04 09:00:00 16.6 10 Sur 15 Sur 0 -- -- 96
2020-09-04 08:00:00 15.6 9 Sur 15 Sur 0 -- -- 97
2020-09-04 07:00:00 15.8 11 Sur 15 Sur 0 -- -- 97
2020-09-04 06:00:00 16.3 10 Sur 16 Sur 0 -- -- 97
2020-09-04 05:00:00 16.4 12 Sur 17 Sur 0 -- -- 97
2020-09-04 04:00:00 16.5 13 Sur 16 Sur 0 -- -- 96
2020-09-04 03:00:00 16.9 10 Sur 13 Sur 0 -- -- 96
2020-09-04 02:00:00 17.1 10 Sur 14 Sur 0 -- -- 95
2020-09-04 01:00:00 17.6 10 Sur 14 Sur 0 -- -- 95
2020-09-04 00:00:00 18.2 8 Sur 11 Sur 0 -- -- 94
2020-09-03 23:00:00 19.1 8 Sur 12 Sur 0 -- -- 91
2020-09-03 22:00:00 20 6 Sur 9 Sur 0 -- -- 87
2020-09-03 21:00:00 21.8 0 Calma 8 Noroeste 0 -- -- 78
2020-09-03 20:00:00 24 0 Calma 15 Noroeste 0 -- -- 69
2020-09-03 19:00:00 25.2 8 Noroeste 15 Noroeste 0 -- -- 64
2020-09-03 18:00:00 25.6 9 Noroeste 15 Noroeste 0 -- -- 64
2020-09-03 17:00:00 25.3 5 Norte 21 Nordeste 0 -- -- 61
2020-09-03 16:00:00 24.6 10 Nordeste 22 Nordeste 0 -- -- 59
2020-09-03 15:00:00 23.5 17 Nordeste 25 Nordeste 0 -- -- 61
2020-09-03 14:00:00 23.3 14 Nordeste 29 Nordeste 0 -- -- 57
2020-09-03 13:00:00 21.8 21 Nordeste 26 Nordeste 0 -- -- 58
2020-09-03 12:00:00 22.3 13 Nordeste 18 Nordeste 0 -- -- 57
2020-09-03 11:00:00 22.2 0 Calma 12 Sur 0 -- -- 64
2020-09-03 10:00:00 17.9 6 Sur 15 Sur 0 -- -- 79
2020-09-03 09:00:00 14 8 Sur 18 Sur 0 -- -- 93
2020-09-03 08:00:00 12.9 12 Sur 19 Sur 0 -- -- 94
2020-09-03 07:00:00 13 10 Sur 17 Sur 0 -- -- 93
2020-09-03 06:00:00 13.2 13 Sur 17 Sur 0 -- -- 93
2020-09-03 05:00:00 13.5 11 Sur 18 Sur 0 -- -- 92
2020-09-03 04:00:00 13.8 11 Sur 17 Sur 0 -- -- 91
2020-09-03 03:00:00 14.3 9 Sur 17 Sur 0 -- -- 91
2020-09-03 02:00:00 14.7 10 Sur 18 Sur 0 -- -- 89
2020-09-03 01:00:00 15 12 Sur 18 Sur 0 -- -- 87
2020-09-03 00:00:00 15.6 12 Sur 16 Sur 0 -- -- 84
2020-09-02 23:00:00 16.6 9 Sur 16 Sur 0 -- -- 77
2020-09-02 22:00:00 17.8 8 Sur 13 Sur 0 -- -- 71
2020-09-02 21:00:00 20.3 2 Este 17 Norte 0 -- -- 55
2020-09-02 20:00:00 22.9 10 Nordeste 17 Nordeste 0 -- -- 50
2020-09-02 19:00:00 23.6 10 Nordeste 18 Norte 0 -- -- 47
2020-09-02 18:00:00 24.1 12 Norte 22 Norte 0 -- -- 47
2020-09-02 17:00:00 23.7 14 Norte 20 Norte 0 -- -- 48
2020-09-02 16:00:00 24 10 Norte 17 Norte 0 -- -- 49
2020-09-02 15:00:00 24.2 11 Nordeste 17 Nordeste 0 -- -- 46
2020-09-02 14:00:00 23.5 10 Nordeste 15 Nordeste 0 -- -- 50
2020-09-02 13:00:00 23.7 8 Nordeste 19 Noroeste 0 -- -- 50
2020-09-02 12:00:00 23.9 13 Noroeste 22 Noroeste 0 -- -- 71
2020-09-02 11:00:00 21.4 5 Noroeste 13 Noroeste 0 -- -- 73
2020-09-02 10:00:00 20.2 0 Calma 12 Sur 0 -- -- 86
2020-09-02 09:00:00 16.4 9 Sur 15 Sur 0 -- -- 95
2020-09-02 08:00:00 15.3 11 Sur 15 Sur 0 -- -- 96
2020-09-02 07:00:00 15.2 11 Sur 15 Sur 0 -- -- 96
2020-09-02 06:00:00 15.2 10 Sur 16 Sur 0 -- -- 96
2020-09-02 05:00:00 15.1 11 Sur 15 Sur 0 -- -- 96
2020-09-02 04:00:00 15.3 9 Sur 14 Sur 0 -- -- 95
2020-09-02 03:00:00 15.5 9 Sur 15 Sur 0 -- -- 94
2020-09-02 02:00:00 16 10 Sur 15 Sur 0 -- -- 94
2020-09-02 01:00:00 16.6 9 Sur 12 Sur 0 -- -- 91
2020-09-02 00:00:00 17.7 6 Sur 11 Sur 0 -- -- 85
2020-09-01 23:00:00 20 5 Norte 19 Norte 0 -- -- 74
2020-09-01 22:00:00 20.7 10 Norte 19 Nordeste 0 -- -- 71
2020-09-01 21:00:00 20.9 9 Norte 18 Norte 0 -- -- 68
2020-09-01 20:00:00 21.8 8 Norte 17 Norte 0 -- -- 64
2020-09-01 19:00:00 23 8 Noroeste 17 Noroeste 0 -- -- 62
2020-09-01 18:00:00 23.1 11 Noroeste 21 Noroeste 0 -- -- 62
2020-09-01 17:00:00 24.4 13 Noroeste 22 Noroeste 0 -- -- 62
2020-09-01 16:00:00 24.2 14 Noroeste 22 Noroeste 0 -- -- 67
2020-09-01 15:00:00 23.4 9 Noroeste 16 Noroeste 0 -- -- 67
2020-09-01 14:00:00 22.1 6 Norte 12 Noroeste 0 -- -- 64
2020-09-01 13:00:00 21.9 7 Noroeste 13 Noroeste 0 -- -- 62
2020-09-01 12:00:00 21.3 0 Calma 9 Norte 0 -- -- 61
2020-09-01 11:00:00 20.9 0 Calma 8 Sur 0 -- -- 58
2020-09-01 10:00:00 18.6 4 Sur 13 Sur 0 -- -- 74
2020-09-01 09:00:00 14.3 10 Sur 17 Sur 0 -- -- 89
2020-09-01 08:00:00 13.6 10 Sur 18 Sur 0 -- -- 90
2020-09-01 07:00:00 13.7 12 Sur 17 Sur 0 -- -- 90
2020-09-01 06:00:00 14.1 11 Sur 17 Sur 0 -- -- 90
2020-09-01 05:00:00 14.4 10 Sur 14 Sur 0 -- -- 90
2020-09-01 04:00:00 14.6 10 Sur 16 Sur 0 -- -- 90
2020-09-01 03:00:00 15 10 Sur 16 Sur 0 -- -- 89
2020-09-01 02:00:00 15.3 9 Sur 15 Sur 0 -- -- 89
2020-09-01 01:00:00 15.6 9 Sur 15 Sur 0 -- -- 88
2020-09-01 00:00:00 15.9 7 Sur 14 Sur 0 -- -- 88
2020-08-31 23:00:00 16.6 9 Sur 14 Sur 0 -- -- 85
2020-08-31 22:00:00 17.7 6 Sur 12 Sur 0 -- -- 78
2020-08-31 21:00:00 18.9 0 Calma 13 Este 0 -- -- 70
2020-08-31 20:00:00 20.7 4 Sudeste 16 Este 0 -- -- 62
2020-08-31 19:00:00 22 8 Este 19 Nordeste 0 -- -- 58
2020-08-31 18:00:00 22.3 9 Nordeste 24 Nordeste 0 -- -- 57
2020-08-31 17:00:00 22.4 12 Nordeste 25 Nordeste 0 -- -- 56
2020-08-31 16:00:00 22.1 14 Nordeste 23 Nordeste 0 -- -- 57
2020-08-31 15:00:00 21.6 14 Nordeste 26 Nordeste 0 -- -- 58
2020-08-31 14:00:00 21.6 13 Nordeste 22 Nordeste 0 -- -- 59
2020-08-31 13:00:00 21 9 Nordeste 15 Norte 0 -- -- 61
2020-08-31 12:00:00 21.1 0 Calma 7 Noroeste 0 -- -- 58
2020-08-31 11:00:00 20.9 0 Calma 12 Sur 0 -- -- 71
2020-08-31 10:00:00 16.7 7 Sur 15 Sur 0 -- -- 92
2020-08-31 09:00:00 13.6 6 Sur 16 Sur 0 -- -- 98
2020-08-31 08:00:00 12.3 9 Sur 14 Sur 0 -- -- 98
2020-08-31 07:00:00 12.4 7 Sur 15 Sur 0 -- -- 98
2020-08-31 06:00:00 12.7 11 Sur 16 Sur 0 -- -- 97
2020-08-31 05:00:00 13 8 Sur 14 Sur 0 -- -- 97
2020-08-31 04:00:00 13.3 4 Sur 14 Sur 0 -- -- 96
2020-08-31 03:00:00 13.7 11 Sur 15 Sur 0 -- -- 95
2020-08-31 02:00:00 14.2 9 Sur 14 Sur 0 -- -- 95
2020-08-31 01:00:00 14.7 6 Sur 13 Sur 0 -- -- 94
2020-08-31 00:00:00 15 6 Sur 12 Sur 0 -- -- 92
2020-08-30 23:00:00 15.5 6 Sur 13 Sur 0 -- -- 89
2020-08-30 22:00:00 16.5 6 Sur 12 Sur 0 -- -- 86
2020-08-30 21:00:00 17.1 5 Sur 14 Norte 0 -- -- 78
2020-08-30 20:00:00 18.6 10 Norte 21 Norte 0 -- -- 68
2020-08-30 19:00:00 19.4 9 Norte 21 Norte 0 -- -- 66
2020-08-30 18:00:00 20.2 2 Este 11 Sudoeste 0 -- -- 67
2020-08-30 17:00:00 18 0 Calma 28 Nordeste 0 -- -- 75
2020-08-30 16:00:00 19.8 12 Norte 28 Norte 0 -- -- 71
2020-08-30 15:00:00 17.7 5 Sudoeste 20 Noroeste 0.2 -- -- 78
2020-08-30 14:00:00 17.6 3 Oeste 31 Noroeste 0.2 -- -- 78
2020-08-30 13:00:00 19.1 6 Noroeste 19 Oeste 0 -- -- 71
2020-08-30 12:00:00 16.4 12 Oeste 57 Noroeste 0.1 -- -- 77
2020-08-30 11:00:00 17.9 24 Norte 41 Norte 0 -- -- 74
2020-08-30 10:00:00 17.4 28 Noroeste 41 Noroeste 0 -- -- 78
2020-08-30 09:00:00 16.9 36 Noroeste 46 Noroeste 0 -- -- 88
2020-08-30 08:00:00 15.7 14 Noroeste 37 Noroeste 0 -- -- 88
2020-08-30 07:00:00 14.6 13 Oeste 45 Noroeste 0.9 -- -- 88
2020-08-30 06:00:00 14.9 5 Sudoeste 57 Noroeste 2.6 -- -- 85
2020-08-30 05:00:00 15.8 40 Noroeste 58 Noroeste 0.9 -- -- 84
2020-08-30 04:00:00 16.3 9 Oeste 36 Oeste 0.4 -- -- 75
2020-08-30 03:00:00 17.6 8 Oeste 29 Oeste 0 -- -- 65
2020-08-30 02:00:00 17.6 9 Oeste 56 Noroeste 0 -- -- 68
2020-08-30 01:00:00 17.3 33 Noroeste 64 Noroeste 0 -- -- 74
2020-08-30 00:00:00 17.9 35 Noroeste 57 Noroeste 0 -- -- 70
2020-08-29 23:00:00 17.3 42 Noroeste 66 Noroeste 0.2 -- -- 78
2020-08-29 22:00:00 15.9 22 Oeste 68 Noroeste 2.9 -- -- 92
2020-08-29 21:00:00 17.2 31 Noroeste 56 Noroeste 2.1 -- -- 88
2020-08-29 20:00:00 18.2 37 Noroeste 59 Noroeste 0.1 -- -- 86
2020-08-29 19:00:00 17.5 31 Noroeste 49 Noroeste 0.4 -- -- 90
2020-08-29 18:00:00 16.9 33 Noroeste 57 Norte 1.5 -- -- 85
2020-08-29 17:00:00 19.3 13 Noroeste 41 Noroeste 0 -- -- 71
2020-08-29 16:00:00 20.5 19 Noroeste 46 Noroeste 0 -- -- 66
2020-08-29 15:00:00 19.8 23 Noroeste 48 Noroeste 0 -- -- 71
2020-08-29 14:00:00 20.1 18 Noroeste 41 Noroeste 0.1 -- -- 67
2020-08-29 13:00:00 19.2 15 Noroeste 36 Noroeste 0 -- -- 70
2020-08-29 12:00:00 19 3 Oeste 23 Noroeste 0 -- -- 71
2020-08-29 11:00:00 16.9 0 Calma 19 Sudoeste 0 -- -- 84
2020-08-29 10:00:00 17 5 Sudoeste 24 Noroeste 0 -- -- 83
2020-08-29 09:00:00 15.3 3 Sur 12 Sur 0.1 -- -- 93
2020-08-29 08:00:00 16.2 0 Calma 35 Noroeste 0.8 -- -- 88
2020-08-29 07:00:00 16 0 Calma 22 Sudoeste 0.7 -- -- 85
2020-08-29 06:00:00 16.7 8 Sudoeste 21 Sudoeste 0 -- -- 79
2020-08-29 05:00:00 16.9 4 Oeste 28 Oeste 0.1 -- -- 81
2020-08-29 04:00:00 16.6 6 Oeste 23 Oeste 0.6 -- -- 90
2020-08-29 03:00:00 16.8 8 Noroeste 42 Noroeste 1.1 -- -- 95
2020-08-29 02:00:00 16.8 5 Oeste 38 Noroeste 0.5 -- -- 97
2020-08-29 01:00:00 16.3 4 Sur 13 Sur 0 -- -- 97
2020-08-29 00:00:00 16.6 7 Sur 28 Noroeste 0.2 -- -- 95
2020-08-28 23:00:00 17.5 3 Sur 28 Oeste 0.5 -- -- 90
2020-08-28 22:00:00 17.6 4 Sur 43 Noroeste 1.2 -- -- 91
2020-08-28 21:00:00 17.9 3 Oeste 17 Noroeste 0 -- -- 86
2020-08-28 20:00:00 18.2 0 Calma 46 Noroeste 0.1 -- -- 83
2020-08-28 19:00:00 18.3 30 Noroeste 61 Noroeste 0.2 -- -- 86
2020-08-28 18:00:00 19 0 Calma 30 Noroeste 0 -- -- 81
2020-08-28 17:00:00 18 19 Oeste 62 Noroeste 0 -- -- 88
2020-08-28 16:00:00 18.6 6 Oeste 51 Noroeste 0.5 -- -- 84
2020-08-28 15:00:00 20.3 15 Noroeste 33 Noroeste 0 -- -- 76
2020-08-28 14:00:00 20.3 11 Oeste 32 Noroeste 0.1 -- -- 73
2020-08-28 13:00:00 19.6 5 Oeste 23 Oeste 0 -- -- 77
2020-08-28 12:00:00 18.4 12 Oeste 44 Noroeste 0.3 -- -- 86
2020-08-28 11:00:00 19 15 Noroeste 36 Noroeste 0.1 -- -- 88
2020-08-28 10:00:00 19.2 4 Sudoeste 25 Noroeste 0 -- -- 86
2020-08-28 09:00:00 18.7 5 Oeste 39 Noroeste 0 -- -- 87
2020-08-28 08:00:00 19.2 9 Oeste 51 Noroeste 0 -- -- 90
2020-08-28 07:00:00 19.3 37 Noroeste 66 Noroeste 0.2 -- -- 98
2020-08-28 06:00:00 21.1 37 Noroeste 51 Noroeste 0.8 -- -- 94
2020-08-28 05:00:00 21.6 5 Noroeste 19 Noroeste 0 -- -- 91
2020-08-28 04:00:00 21.6 0 Calma 4 Sur 0 -- -- 91
2020-08-28 03:00:00 21.8 0 Calma 9 Sur 0 -- -- 90
2020-08-28 02:00:00 22 2 Sudeste 8 Sudeste 0 -- -- 90
2020-08-28 01:00:00 22.5 0 Calma 8 Sur 0 -- -- 88
2020-08-28 00:00:00 22.8 0 Calma 15 Oeste 0 -- -- 86
2020-08-27 23:00:00 22.9 2 Noroeste 11 Noroeste 0 -- -- 84
2020-08-27 22:00:00 23.1 7 Noroeste 24 Noroeste 0 -- -- 83
2020-08-27 21:00:00 23.4 11 Noroeste 21 Noroeste 0 -- -- 83
2020-08-27 20:00:00 24 14 Noroeste 21 Noroeste 0 -- -- 78
2020-08-27 19:00:00 27.2 14 Noroeste 27 Noroeste 0 -- -- 72
2020-08-27 18:00:00 26.3 18 Noroeste 34 Noroeste 0 -- -- 74
2020-08-27 17:00:00 26.3 23 Noroeste 31 Noroeste 0 -- -- 73
2020-08-27 16:00:00 27.7 19 Noroeste 30 Noroeste 0 -- -- 67
2020-08-27 15:00:00 29.5 15 Noroeste 28 Noroeste 0 -- -- 63
2020-08-27 14:00:00 26.6 12 Norte 24 Noroeste 0 -- -- 73
2020-08-27 13:00:00 28.2 0 Calma 12 Nordeste 0 -- -- 65
2020-08-27 12:00:00 26.8 2 Nordeste 14 Nordeste 0 -- -- 71
2020-08-27 11:00:00 26.1 0 Calma 10 Sudeste 0 -- -- 72
2020-08-27 10:00:00 23.7 4 Sur 11 Sur 0 -- -- 88
2020-08-27 09:00:00 20.9 4 Sur 10 Sur 0 -- -- 97
2020-08-27 08:00:00 19.6 5 Sur 13 Sur 0 -- -- 96
2020-08-27 07:00:00 19.8 6 Sur 12 Sur 0 -- -- 97
2020-08-27 06:00:00 20.1 6 Sur 12 Sur 0 -- -- 95
2020-08-27 05:00:00 20.7 5 Sur 10 Sur 0 -- -- 94
2020-08-27 04:00:00 21.5 4 Sur 9 Sur 0 -- -- 93
2020-08-27 03:00:00 22 0 Calma 7 Sudeste 0 -- -- 89
2020-08-27 02:00:00 22.6 2 Sudeste 8 Este 0 -- -- 90
2020-08-27 01:00:00 22.5 3 Este 13 Nordeste 0 -- -- 89
2020-08-27 00:00:00 22.6 5 Este 14 Nordeste 0 -- -- 90
2020-08-26 23:00:00 23.2 4 Nordeste 15 Nordeste 0 -- -- 89
2020-08-26 22:00:00 23 12 Nordeste 16 Nordeste 0 -- -- 88
2020-08-26 21:00:00 23.8 0 Calma 14 Nordeste 0 -- -- 85
2020-08-26 20:00:00 24.5 9 Nordeste 18 Nordeste 0 -- -- 79
2020-08-26 19:00:00 25.8 13 Nordeste 22 Nordeste 0 -- -- 75
2020-08-26 18:00:00 26.3 13 Nordeste 18 Nordeste 0 -- -- 72
2020-08-26 17:00:00 26.3 15 Nordeste 23 Nordeste 0 -- -- 74
2020-08-26 16:00:00 25.7 16 Nordeste 26 Nordeste 0 -- -- 74
2020-08-26 15:00:00 25.8 16 Nordeste 24 Nordeste 0 -- -- 76
2020-08-26 14:00:00 26 17 Nordeste 22 Nordeste 0 -- -- 71
2020-08-26 13:00:00 25.6 12 Nordeste 18 Norte 0 -- -- 76
2020-08-26 12:00:00 24.9 9 Norte 17 Norte 0 -- -- 77
2020-08-26 11:00:00 25.2 4 Norte 9 Norte 0.2 -- -- 78
2020-08-26 10:00:00 23.6 0 Calma 11 Sur 0 -- -- 85
2020-08-26 09:00:00 20.6 9 Sur 13 Sur 0 -- -- 92
2020-08-26 08:00:00 19.6 10 Sur 14 Sur 0 -- -- 92
2020-08-26 07:00:00 20.1 8 Sur 13 Sur 0 -- -- 91
2020-08-26 06:00:00 20.4 6 Sur 9 Sur 0 -- -- 87
2020-08-26 05:00:00 21.2 3 Sur 18 Sur 0 -- -- 83
2020-08-26 04:00:00 21.7 10 Sur 17 Sur 0 -- -- 84
2020-08-26 03:00:00 21.7 5 Sur 14 Sur 0 -- -- 85
2020-08-26 02:00:00 21.7 9 Sur 14 Sur 0 -- -- 85
2020-08-26 01:00:00 21.7 5 Sur 10 Sur 0 -- -- 85
2020-08-26 00:00:00 21.8 0 Calma 8 Sur 0 -- -- 85
2020-08-25 23:00:00 22.2 0 Calma 8 Sur 0 -- -- 85
2020-08-25 22:00:00 22.9 0 Calma 8 Noroeste 0 -- -- 83
2020-08-25 21:00:00 23.3 0 Calma 9 Noroeste 0 -- -- 75
2020-08-25 20:00:00 24.7 5 Norte 9 Noroeste 0 -- -- 69
2020-08-25 19:00:00 27.1 0 Calma 9 Noroeste 0 -- -- 64
2020-08-25 18:00:00 26.8 0 Calma 15 Noroeste 0 -- -- 65
2020-08-25 17:00:00 26.1 13 Noroeste 24 Noroeste 0 -- -- 65
2020-08-25 16:00:00 26.2 19 Noroeste 24 Noroeste 0 -- -- 61
2020-08-25 15:00:00 28.5 13 Noroeste 24 Noroeste 0 -- -- 60
2020-08-25 14:00:00 27.1 13 Noroeste 33 Noroeste 0 -- -- 62
2020-08-25 13:00:00 27.7 22 Noroeste 35 Noroeste 0 -- -- 58
2020-08-25 12:00:00 25.5 10 Norte 20 Norte 0 -- -- 63
2020-08-25 11:00:00 25.9 0 Calma 11 Nordeste 0 -- -- 61
2020-08-25 10:00:00 24.9 0 Calma 21 Noroeste 0 -- -- 66
2020-08-25 09:00:00 21.8 13 Noroeste 20 Noroeste 0 -- -- 70
2020-08-25 08:00:00 20.8 6 Sur 19 Sur 0 -- -- 68
2020-08-25 07:00:00 19.5 15 Sur 21 Sudoeste 0 -- -- 72
2020-08-25 06:00:00 16.7 9 Sudoeste 14 Sudoeste 0 -- -- 93
2020-08-25 05:00:00 16.7 7 Sur 15 Sur 0 -- -- 93
2020-08-25 04:00:00 16.7 5 Sur 13 Sur 0 -- -- 94
2020-08-25 03:00:00 17.1 7 Sur 14 Sur 0 -- -- 93
2020-08-25 02:00:00 17.6 6 Sur 14 Sur 0 -- -- 93
2020-08-25 01:00:00 18.1 8 Sur 15 Sur 0 -- -- 92
2020-08-25 00:00:00 18.8 8 Sur 13 Sur 0 -- -- 89
2020-08-24 23:00:00 19.5 4 Sur 11 Sudeste 0 -- -- 84
2020-08-24 22:00:00 21 9 Sur 12 Sudeste 0 -- -- 75
2020-08-24 21:00:00 22.2 7 Sudeste 18 Este 0 -- -- 68
2020-08-24 20:00:00 24.3 9 Nordeste 25 Nordeste 0 -- -- 63
2020-08-24 19:00:00 24.6 12 Nordeste 26 Nordeste 0 -- -- 59
2020-08-24 18:00:00 24.2 15 Nordeste 23 Nordeste 0 -- -- 58
2020-08-24 17:00:00 24.5 14 Nordeste 24 Nordeste 0 -- -- 58
2020-08-24 16:00:00 24.7 13 Nordeste 23 Nordeste 0 -- -- 57
2020-08-24 15:00:00 24.8 13 Nordeste 22 Nordeste 0 -- -- 59
2020-08-24 14:00:00 24.3 10 Norte 18 Norte 0 -- -- 63
2020-08-24 13:00:00 24.2 6 Norte 17 Noroeste 0 -- -- 62
2020-08-24 12:00:00 23.7 7 Noroeste 18 Noroeste 0 -- -- 66
2020-08-24 11:00:00 23 9 Noroeste 14 Noroeste 0 -- -- 72
2020-08-24 10:00:00 20.2 2 Sur 10 Sur 0 -- -- 92
2020-08-24 09:00:00 18.9 6 Sur 11 Sur 0 -- -- 94
2020-08-24 08:00:00 17.9 6 Sur 12 Sur 0 -- -- 93
2020-08-24 07:00:00 18.2 5 Sur 12 Sur 0.1 -- -- 93
2020-08-24 06:00:00 18.1 5 Sur 10 Sudoeste 0 -- -- 91
2020-08-24 05:00:00 18.2 6 Sur 12 Sur 0 -- -- 91
2020-08-24 04:00:00 17.9 5 Sur 12 Sur 0 -- -- 90
2020-08-24 03:00:00 17.9 5 Sur 12 Sudoeste 0 -- -- 89
2020-08-24 02:00:00 17.9 5 Sur 13 Sur 0 -- -- 89
2020-08-24 01:00:00 18.5 6 Sur 12 Sur 0 -- -- 88
2020-08-24 00:00:00 19.3 5 Sur 10 Sur 0 -- -- 85
2020-08-23 23:00:00 19.7 0 Calma 5 Sur 0 -- -- 80
2020-08-23 22:00:00 21 0 Calma 10 Norte 0 -- -- 74
2020-08-23 21:00:00 21.5 2 Norte 14 Nordeste 0 -- -- 69
2020-08-23 20:00:00 23.4 4 Norte 14 Norte 0 -- -- 65
2020-08-23 19:00:00 24.9 8 Norte 17 Noroeste 0 -- -- 60
2020-08-23 18:00:00 24.9 10 Norte 19 Noroeste 0 -- -- 59
2020-08-23 17:00:00 25.3 13 Norte 22 Norte 0 -- -- 58
2020-08-23 16:00:00 25.1 13 Norte 19 Noroeste 0 -- -- 61
2020-08-23 15:00:00 25.6 10 Norte 18 Norte 0 -- -- 62
2020-08-23 14:00:00 24 13 Noroeste 27 Noroeste 0 -- -- 64
2020-08-23 13:00:00 23.6 20 Noroeste 28 Noroeste 0 -- -- 68
2020-08-23 12:00:00 24.2 12 Noroeste 19 Noroeste 0 -- -- 69
2020-08-23 11:00:00 23.2 6 Noroeste 13 Noroeste 0 -- -- 72
2020-08-23 10:00:00 21.6 0 Calma 7 Sur 0 -- -- 85
2020-08-23 09:00:00 19.2 4 Sur 10 Sudoeste 0 -- -- 95
2020-08-23 08:00:00 18.6 2 Sur 10 Sur 0 -- -- 95
2020-08-23 07:00:00 18.8 6 Sur 11 Sudoeste 0 -- -- 95
2020-08-23 06:00:00 18.9 3 Sur 9 Sur 0 -- -- 94
2020-08-23 05:00:00 18.6 4 Sur 10 Sur 0 -- -- 94
2020-08-23 04:00:00 19.1 6 Sur 9 Sur 0 -- -- 93
2020-08-23 03:00:00 19.5 0 Calma 13 Noroeste 0 -- -- 91
2020-08-23 02:00:00 19.7 0 Calma 6 Sur 0 -- -- 90
2020-08-23 01:00:00 20.2 0 Calma 4 Sur 0 -- -- 87
2020-08-23 00:00:00 21.1 0 Calma 13 Noroeste 0 -- -- 81
2020-08-22 23:00:00 21.4 6 Noroeste 13 Noroeste 0 -- -- 78
2020-08-22 22:00:00 21.3 10 Noroeste 20 Noroeste 0 -- -- 78
2020-08-22 21:00:00 21.7 10 Noroeste 20 Noroeste 0 -- -- 76
2020-08-22 20:00:00 21.9 10 Noroeste 18 Noroeste 0 -- -- 76
2020-08-22 19:00:00 22.5 13 Noroeste 20 Norte 0 -- -- 77
2020-08-22 18:00:00 22.3 15 Noroeste 28 Noroeste 0 -- -- 78
2020-08-22 17:00:00 23.3 25 Noroeste 33 Noroeste 0 -- -- 80
2020-08-22 16:00:00 22.7 22 Norte 29 Noroeste 0 -- -- 78
2020-08-22 15:00:00 23.1 18 Norte 26 Noroeste 0 -- -- 79
2020-08-22 14:00:00 24.4 14 Noroeste 21 Noroeste 0 -- -- 70
2020-08-22 13:00:00 24 11 Noroeste 17 Noroeste 0 -- -- 69
2020-08-22 12:00:00 23.5 8 Noroeste 13 Noroeste 0.1 -- -- 74
2020-08-22 11:00:00 23.2 3 Norte 10 Noroeste 0 -- -- 75
2020-08-22 10:00:00 20.7 4 Sur 14 Sur 0 -- -- 93
2020-08-22 09:00:00 18.6 8 Sur 16 Sur 0 -- -- 98
2020-08-22 08:00:00 17.4 10 Sur 15 Sur 0 -- -- 98
2020-08-22 07:00:00 17.4 8 Sur 14 Sur 0 -- -- 98
2020-08-22 06:00:00 17.2 8 Sur 15 Sur 0 -- -- 98
2020-08-22 05:00:00 17.7 8 Sur 14 Sur 0 -- -- 98
2020-08-22 04:00:00 18 5 Sur 14 Sur 0 -- -- 98
2020-08-22 03:00:00 18.3 5 Sur 12 Sur 0 -- -- 98
2020-08-22 02:00:00 18.8 2 Sur 12 Sudeste 0 -- -- 98
2020-08-22 01:00:00 19.5 3 Sur 9 Sur 0 -- -- 98
2020-08-22 00:00:00 19.7 4 Sur 14 Sur 0 -- -- 98
2020-08-21 23:00:00 20.1 0 Calma 10 Sur 0 -- -- 98
2020-08-21 22:00:00 20.3 4 Sur 10 Sur 0 -- -- 98
2020-08-21 21:00:00 20.6 0 Calma 7 Sur 0 -- -- 97
2020-08-21 20:00:00 21.3 0 Calma 12 Sudeste 0 -- -- 96
2020-08-21 19:00:00 21.2 0 Calma 12 Sur 2.1 -- -- 92
2020-08-21 18:00:00 21.8 5 Sur 14 Sudeste 0.4 -- -- 85
2020-08-21 17:00:00 22.4 0 Calma 12 Sudeste 0 -- -- 85
2020-08-21 16:00:00 22.2 0 Calma 13 Nordeste 0 -- -- 89
2020-08-21 15:00:00 21 9 Nordeste 21 Nordeste 0.1 -- -- 90
2020-08-21 14:00:00 21.9 10 Norte 37 Norte 0 -- -- 88
2020-08-21 13:00:00 22.3 25 Norte 37 Norte 0 -- -- 88
2020-08-21 12:00:00 24.6 9 Noroeste 12 Noroeste 0 -- -- 86
2020-08-21 11:00:00 24.6 0 Calma 13 Noroeste 0 -- -- 88
2020-08-21 10:00:00 24 5 Noroeste 13 Noroeste 0 -- -- 92
2020-08-21 09:00:00 23.3 8 Noroeste 17 Noroeste 0 -- -- 94
2020-08-21 08:00:00 23.1 5 Noroeste 21 Noroeste 0 -- -- 94
2020-08-21 07:00:00 23.1 9 Noroeste 27 Noroeste 0 -- -- 93
2020-08-21 06:00:00 23.2 15 Noroeste 32 Noroeste 0 -- -- 92
2020-08-21 05:00:00 23.1 12 Sur 18 Sudoeste 0 -- -- 76
2020-08-21 04:00:00 23.1 9 Sur 17 Sur 0 -- -- 77
2020-08-21 03:00:00 23.3 5 Sur 18 Sur 0 -- -- 73
2020-08-21 02:00:00 23.5 10 Sur 19 Sur 0 -- -- 71
2020-08-21 01:00:00 23.4 8 Sur 17 Sur 0 -- -- 78
2020-08-21 00:00:00 23.2 8 Sur 17 Oeste 0 -- -- 85